Time;durP1;ratioP1;P1;durP2;ratioP2;P2;SDS_P1;SDS_P2;PMS_P1;PMS_P2;Temp;Humidity;BMP_temperature;BMP_pressure;BME280_temperature;BME280_humidity;BME280_pressure;Samples;Min_cycle;Max_cycle;Signal;HPM_P1;HPM_P2
2024/01/13 00:02:01;;;;;;;2.45;1.20;;;18.50;70.90;;;;;;4991345;28;20089;-70
2024/01/13 00:04:26;;;;;;;1.95;0.98;;;18.50;70.90;;;;;;4991867;28;20026;-69
2024/01/13 00:06:53;;;;;;;4.05;1.20;;;18.60;70.80;;;;;;4991595;28;20117;-70
2024/01/13 00:09:18;;;;;;;0.98;0.88;;;18.50;70.80;;;;;;4991394;28;20022;-69
2024/01/13 00:11:44;;;;;;;3.08;0.95;;;18.60;70.70;;;;;;4990880;28;20439;-69
2024/01/13 00:14:10;;;;;;;2.55;1.20;;;18.60;70.90;;;;;;4991388;28;20027;-69
2024/01/13 00:16:35;;;;;;;2.95;1.23;;;18.60;70.90;;;;;;4991442;28;20391;-70
2024/01/13 00:19:01;;;;;;;6.22;1.15;;;18.60;70.90;;;;;;4991297;28;20030;-69
2024/01/13 00:21:26;;;;;;;4.82;1.00;;;18.60;71.00;;;;;;4990805;28;20019;-71
2024/01/13 00:23:52;;;;;;;4.65;0.80;;;18.60;71.00;;;;;;4991346;28;20491;-70
2024/01/13 00:26:18;;;;;;;3.95;0.77;;;18.50;71.10;;;;;;4991326;28;20022;-70
2024/01/13 00:28:43;;;;;;;3.20;1.58;;;18.60;71.10;;;;;;4991133;28;20026;-70
2024/01/13 00:31:09;;;;;;;12.85;1.52;;;18.50;70.90;;;;;;4973136;28;20022;-68
2024/01/13 00:33:35;;;;;;;1.60;0.93;;;18.60;70.90;;;;;;4991139;28;20444;-70
2024/01/13 00:36:00;;;;;;;9.27;1.13;;;18.50;71.00;;;;;;4991278;28;20054;-70
2024/01/13 00:38:26;;;;;;;6.95;0.88;;;18.60;71.40;;;;;;4991377;28;20499;-73
2024/01/13 00:40:52;;;;;;;4.60;1.25;;;18.60;71.00;;;;;;4990489;28;20529;-73
2024/01/13 00:43:17;;;;;;;8.57;1.52;;;18.60;71.00;;;;;;4991000;28;20088;-74
2024/01/13 00:45:43;;;;;;;6.57;0.95;;;18.60;71.10;;;;;;4991436;28;20546;-73
2024/01/13 00:48:09;;;;;;;7.68;0.95;;;18.50;71.20;;;;;;4993898;28;20034;-72
2024/01/13 00:50:35;;;;;;;11.98;1.50;;;18.50;71.30;;;;;;4994126;28;20030;-70
2024/01/13 00:53:01;;;;;;;5.97;1.48;;;18.50;71.30;;;;;;4994371;28;20026;-71
2024/01/13 00:55:26;;;;;;;5.65;1.00;;;18.50;71.50;;;;;;4994726;28;20022;-70
2024/01/13 00:57:52;;;;;;;2.03;1.00;;;18.50;71.60;;;;;;4994503;28;20484;-70
2024/01/13 01:00:17;;;;;;;4.68;0.93;;;18.50;71.60;;;;;;4993791;28;20113;-70
2024/01/13 01:02:43;;;;;;;11.75;1.13;;;18.50;71.60;;;;;;4994452;28;20443;-68
2024/01/13 01:05:09;;;;;;;4.95;1.20;;;18.50;71.60;;;;;;4995181;28;20058;-69
2024/01/13 01:07:34;;;;;;;12.50;1.48;;;18.50;71.80;;;;;;5013976;28;20021;-69
2024/01/13 01:10:00;;;;;;;8.25;1.08;;;18.50;71.70;;;;;;5013396;28;20387;-69
2024/01/13 01:12:26;;;;;;;13.25;1.10;;;18.50;71.70;;;;;;5013567;28;20038;-70
2024/01/13 01:14:51;;;;;;;21.40;2.55;;;18.50;71.90;;;;;;5013793;28;20022;-69
2024/01/13 01:17:17;;;;;;;7.15;0.85;;;18.50;71.80;;;;;;5013761;28;20026;-68
2024/01/13 01:19:42;;;;;;;4.25;0.75;;;18.50;71.80;;;;;;5013089;28;20025;-70
2024/01/13 01:22:08;;;;;;;9.30;1.20;;;18.50;71.90;;;;;;5013722;28;20032;-70
2024/01/13 01:24:34;;;;;;;17.17;1.70;;;18.50;72.00;;;;;;5013660;28;20084;-69
2024/01/13 01:26:59;;;;;;;10.23;1.67;;;18.50;71.90;;;;;;5013639;28;20026;-69
2024/01/13 01:29:25;;;;;;;13.52;2.90;;;18.50;72.00;;;;;;5013512;28;20450;-71
2024/01/13 01:31:50;;;;;;;13.38;1.58;;;18.60;72.00;;;;;;5012904;28;20084;-69
2024/01/13 01:34:16;;;;;;;8.90;1.20;;;18.60;72.00;;;;;;5013542;28;20057;-68
2024/01/13 01:36:42;;;;;;;7.40;1.63;;;18.60;71.90;;;;;;5013439;28;20026;-71
2024/01/13 01:39:10;;;;;;;11.32;1.67;;;18.50;71.90;;;;;;5013422;28;20112;-70
2024/01/13 01:41:36;;;;;;;40.53;2.28;;;18.50;72.00;;;;;;5012692;28;20073;-68
2024/01/13 01:44:02;;;;;;;6.97;1.52;;;18.50;72.00;;;;;;5013348;28;20408;-69
2024/01/13 01:46:31;;;;;;;7.78;1.45;;;18.50;72.00;;;;;;5013298;28;20030;-70
2024/01/13 01:48:59;;;;;;;13.77;1.13;;;18.50;72.00;;;;;;5013298;28;20048;-70
2024/01/13 01:51:26;;;;;;;7.53;1.80;;;18.50;72.20;;;;;;5011321;28;20053;-70
2024/01/13 01:53:52;;;;;;;17.35;2.15;;;18.50;72.30;;;;;;5013086;28;20080;-70
2024/01/13 01:56:22;;;;;;;25.00;2.40;;;18.50;72.30;;;;;;5012962;28;20033;-71
2024/01/13 01:58:51;;;;;;;13.32;2.20;;;18.50;72.30;;;;;;5012461;28;20022;-71
2024/01/13 02:01:18;;;;;;;24.05;1.65;;;18.50;72.40;;;;;;5012433;28;20029;-69
2024/01/13 02:03:45;;;;;;;12.57;1.55;;;18.50;72.40;;;;;;5013131;28;20022;-71
2024/01/13 02:06:10;;;;;;;10.45;1.50;;;18.50;72.40;;;;;;5012987;28;20399;-69
2024/01/13 02:08:37;;;;;;;6.53;0.93;;;18.50;72.30;;;;;;5012853;28;20033;-69
2024/01/13 02:11:02;;;;;;;10.90;1.10;;;18.50;72.40;;;;;;5012324;28;20497;-70
2024/01/13 02:13:28;;;;;;;9.55;1.45;;;18.50;72.40;;;;;;5011347;28;20168;-70
2024/01/13 02:15:54;;;;;;;8.00;1.13;;;18.50;72.40;;;;;;5012633;28;20395;-68
2024/01/13 02:18:32;;;;;;;5.60;1.13;;;18.50;73.00;;;;;;5012860;28;20033;-71
2024/01/13 02:20:58;;;;;;;18.13;1.75;;;18.50;72.60;;;;;;5011975;28;20514;-69
2024/01/13 02:23:23;;;;;;;9.27;0.98;;;18.50;72.60;;;;;;5012614;28;20022;-69
2024/01/13 02:25:49;;;;;;;6.35;1.38;;;18.50;72.70;;;;;;5012785;28;20029;-69
2024/01/13 02:28:16;;;;;;;4.20;0.90;;;18.50;72.70;;;;;;5012792;28;20029;-71
2024/01/13 02:30:42;;;;;;;10.18;0.93;;;18.50;72.50;;;;;;5010598;28;20045;-69
2024/01/13 02:33:07;;;;;;;13.05;2.33;;;18.50;72.60;;;;;;5012346;28;20129;-69
2024/01/13 02:35:33;;;;;;;9.20;1.48;;;18.50;72.70;;;;;;5012387;28;20088;-68
2024/01/13 02:37:58;;;;;;;8.52;1.05;;;18.50;72.50;;;;;;5012302;28;20022;-67
2024/01/13 02:40:24;;;;;;;10.82;1.08;;;18.50;72.40;;;;;;5011835;28;20014;-69
2024/01/13 02:42:50;;;;;;;17.45;1.85;;;18.50;72.50;;;;;;5012364;28;20485;-67
2024/01/13 02:45:15;;;;;;;10.95;1.35;;;18.50;72.20;;;;;;5012407;28;20033;-69
2024/01/13 02:47:48;;;;;;;7.65;1.35;;;18.60;72.30;;;;;;5012079;28;20113;-69
2024/01/13 02:50:14;;;;;;;5.90;1.15;;;18.50;72.30;;;;;;5011453;28;20026;-67
2024/01/13 02:52:40;;;;;;;5.63;0.88;;;18.50;72.10;;;;;;5011987;28;20505;-68
2024/01/13 02:55:06;;;;;;;12.13;1.20;;;18.50;72.00;;;;;;5012857;28;20050;-68
2024/01/13 02:57:33;;;;;;;9.70;0.95;;;18.50;72.00;;;;;;5010713;28;20058;-69
2024/01/13 02:59:58;;;;;;;4.88;0.98;;;18.50;72.00;;;;;;5011214;28;20022;-69
2024/01/13 03:02:24;;;;;;;6.25;1.45;;;18.50;71.90;;;;;;5012030;28;20026;-68
2024/01/13 03:04:49;;;;;;;6.88;0.93;;;18.50;72.00;;;;;;5011754;28;20037;-69
2024/01/13 03:07:15;;;;;;;4.88;1.02;;;18.50;72.00;;;;;;5011805;28;20044;-69
2024/01/13 03:09:41;;;;;;;4.57;0.50;;;18.40;71.90;;;;;;5011383;28;20395;-70
2024/01/13 03:12:06;;;;;;;11.80;1.00;;;18.40;72.10;;;;;;5011800;28;20026;-69
2024/01/13 03:14:32;;;;;;;3.72;1.27;;;18.50;72.20;;;;;;5011666;28;20028;-69
2024/01/13 03:16:58;;;;;;;4.40;0.77;;;18.50;72.20;;;;;;5011688;28;20053;-69
2024/01/13 03:19:24;;;;;;;9.35;0.98;;;18.40;72.20;;;;;;5011462;28;20069;-68
2024/01/13 03:21:50;;;;;;;5.57;0.98;;;18.40;72.60;;;;;;5010974;28;20026;-69
2024/01/13 03:24:15;;;;;;;5.45;0.80;;;18.40;72.60;;;;;;5011566;28;20037;-68
2024/01/13 03:26:41;;;;;;;5.28;0.88;;;18.40;72.70;;;;;;5011622;28;20025;-69
2024/01/13 03:29:07;;;;;;;3.30;0.65;;;18.50;72.70;;;;;;5011463;28;20064;-68
2024/01/13 03:31:32;;;;;;;5.22;0.80;;;18.40;72.60;;;;;;5010579;28;20506;-68
2024/01/13 03:33:58;;;;;;;1.75;0.85;;;18.40;72.80;;;;;;5011421;28;20033;-68
2024/01/13 03:36:23;;;;;;;2.25;0.90;;;18.40;72.80;;;;;;5011556;28;20100;-68
2024/01/13 03:38:49;;;;;;;4.22;0.32;;;18.40;72.70;;;;;;5011627;28;20026;-68
2024/01/13 03:41:18;;;;;;;3.15;0.75;;;18.40;72.80;;;;;;5010699;28;20487;-68
2024/01/13 03:43:44;;;;;;;3.17;0.73;;;18.40;72.70;;;;;;5011372;28;20106;-68
2024/01/13 03:46:10;;;;;;;2.35;0.40;;;18.40;72.70;;;;;;5011340;28;20105;-68
2024/01/13 03:48:36;;;;;;;1.00;0.50;;;18.40;72.70;;;;;;5011223;28;20049;-68
2024/01/13 03:51:02;;;;;;;3.53;0.70;;;18.40;72.70;;;;;;5010737;28;20026;-68
2024/01/13 03:53:28;;;;;;;2.95;0.40;;;18.40;72.70;;;;;;5011139;28;20057;-69
2024/01/13 03:55:54;;;;;;;3.92;0.43;;;18.40;72.70;;;;;;5011345;28;20041;-69
2024/01/13 03:58:20;;;;;;;1.75;0.50;;;18.40;72.60;;;;;;5011297;28;20073;-70
2024/01/13 04:00:46;;;;;;;2.10;0.52;;;18.40;72.60;;;;;;5010659;28;20025;-69
2024/01/13 04:03:12;;;;;;;5.53;0.80;;;18.40;72.60;;;;;;5011063;28;20483;-69
2024/01/13 04:05:37;;;;;;;3.45;0.82;;;18.40;72.90;;;;;;5011168;28;20040;-70
2024/01/13 04:08:03;;;;;;;1.42;0.40;;;18.40;72.70;;;;;;5011214;28;20022;-69
2024/01/13 04:10:29;;;;;;;1.00;0.60;;;18.40;72.70;;;;;;5010575;28;20030;-69
2024/01/13 04:12:56;;;;;;;1.40;0.65;;;18.40;72.60;;;;;;5009644;28;20029;-70
2024/01/13 04:15:22;;;;;;;1.23;0.57;;;18.30;72.50;;;;;;5011109;28;20022;-70
2024/01/13 04:17:48;;;;;;;4.03;0.45;;;18.30;72.50;;;;;;5011077;28;20504;-70
2024/01/13 04:20:13;;;;;;;1.00;0.43;;;18.30;72.40;;;;;;5010611;28;20052;-69
2024/01/13 04:22:39;;;;;;;2.05;0.38;;;18.30;72.40;;;;;;5013194;28;20399;-69
2024/01/13 04:25:05;;;;;;;1.80;0.40;;;18.30;72.40;;;;;;5014839;28;20108;-69
2024/01/13 04:27:31;;;;;;;0.60;0.30;;;18.30;72.50;;;;;;5014863;28;20030;-70
2024/01/13 04:29:56;;;;;;;1.48;0.50;;;18.30;72.50;;;;;;5012715;28;20509;-69
2024/01/13 04:32:22;;;;;;;2.67;0.32;;;18.30;72.50;;;;;;5014531;28;20030;-68
2024/01/13 04:34:48;;;;;;;2.13;0.50;;;18.30;72.50;;;;;;5014656;28;20033;-68
2024/01/13 04:37:13;;;;;;;0.60;0.40;;;18.30;72.50;;;;;;5014679;28;20018;-69
2024/01/13 04:39:39;;;;;;;4.78;0.45;;;18.30;72.50;;;;;;5014035;28;20054;-69
2024/01/13 04:42:05;;;;;;;0.75;0.30;;;18.30;72.50;;;;;;5014663;28;20034;-70
2024/01/13 04:44:30;;;;;;;4.32;0.30;;;18.30;72.60;;;;;;5014457;28;20034;-70
2024/01/13 04:46:56;;;;;;;1.85;0.35;;;18.30;72.50;;;;;;5014323;28;20022;-70
2024/01/13 04:49:22;;;;;;;2.90;0.20;;;18.30;72.50;;;;;;5014772;28;20463;-70
2024/01/13 04:51:47;;;;;;;1.90;0.30;;;18.30;72.80;;;;;;5013780;28;20483;-69
2024/01/13 04:54:13;;;;;;;1.52;0.60;;;18.30;73.00;;;;;;5014316;28;20049;-69
2024/01/13 04:56:39;;;;;;;12.10;1.00;;;18.40;73.00;;;;;;5014205;28;20462;-69
2024/01/13 04:59:04;;;;;;;2.53;0.40;;;18.50;73.10;;;;;;5014253;28;20018;-70
2024/01/13 05:01:30;;;;;;;0.57;0.57;;;18.50;73.60;;;;;;5013554;28;20045;-69
2024/01/13 05:03:55;;;;;;;6.68;0.40;;;18.50;73.30;;;;;;5013030;28;20053;-69
2024/01/13 05:06:21;;;;;;;1.90;0.30;;;18.60;73.50;;;;;;5014306;28;20079;-69
2024/01/13 05:08:47;;;;;;;0.82;0.30;;;18.60;73.30;;;;;;5014253;28;20040;-69
2024/01/13 05:11:13;;;;;;;4.80;0.45;;;18.70;73.40;;;;;;5013559;28;20053;-70
2024/01/13 05:13:39;;;;;;;0.70;0.20;;;18.80;73.20;;;;;;5014194;28;20104;-67
2024/01/13 05:16:04;;;;;;;0.57;0.30;;;18.80;73.20;;;;;;5014285;28;20069;-69
2024/01/13 05:18:30;;;;;;;1.30;0.38;;;18.90;73.00;;;;;;5013827;28;20026;-69
2024/01/13 05:20:56;;;;;;;2.15;0.30;;;18.90;73.00;;;;;;5013295;28;20529;-69
2024/01/13 05:23:21;;;;;;;1.90;0.55;;;19.00;72.80;;;;;;5013769;28;20488;-69
2024/01/13 05:25:47;;;;;;;0.75;0.32;;;19.00;72.80;;;;;;5013652;28;20163;-70
2024/01/13 05:28:13;;;;;;;6.03;0.30;;;19.00;72.70;;;;;;5013664;28;20072;-70
2024/01/13 05:30:38;;;;;;;1.17;0.20;;;19.00;72.50;;;;;;5012939;28;20108;-71
2024/01/13 05:33:04;;;;;;;1.90;0.40;;;19.10;72.40;;;;;;5012551;28;20401;-69
2024/01/13 05:35:29;;;;;;;1.70;0.20;;;19.20;72.40;;;;;;5013414;28;20022;-69
2024/01/13 05:37:55;;;;;;;1.95;0.38;;;19.10;72.40;;;;;;5013418;28;20538;-69
2024/01/13 05:40:21;;;;;;;0.57;0.20;;;19.20;72.30;;;;;;5012786;28;20454;-69
2024/01/13 05:42:46;;;;;;;0.20;0.20;;;19.20;72.30;;;;;;5013361;28;20032;-69
2024/01/13 05:45:12;;;;;;;1.30;0.30;;;19.30;72.20;;;;;;5013232;28;20534;-68
2024/01/13 05:47:38;;;;;;;1.67;0.47;;;19.20;72.10;;;;;;5013278;28;20026;-69
2024/01/13 05:50:04;;;;;;;0.20;0.10;;;19.20;72.00;;;;;;5011401;28;20164;-70
2024/01/13 05:52:30;;;;;;;0.32;0.20;;;19.30;71.90;;;;;;5011777;28;20054;-70
2024/01/13 05:54:56;;;;;;;1.00;0.30;;;19.20;71.90;;;;;;5012974;28;20068;-70
2024/01/13 05:57:22;;;;;;;0.40;0.20;;;19.30;71.90;;;;;;5013117;28;20026;-70
2024/01/13 05:59:47;;;;;;;0.35;0.08;;;19.30;71.80;;;;;;5011094;28;20076;-69
2024/01/13 06:02:13;;;;;;;0.73;0.32;;;19.30;71.80;;;;;;5012845;28;20398;-69
2024/01/13 06:04:40;;;;;;;2.38;0.45;;;19.30;71.70;;;;;;5013172;28;20469;-70
2024/01/13 06:07:05;;;;;;;1.23;0.45;;;19.30;71.80;;;;;;5012973;28;20447;-70
2024/01/13 06:09:32;;;;;;;1.55;0.20;;;19.30;71.60;;;;;;5012657;28;20054;-70
2024/01/13 06:11:57;;;;;;;0.38;0.30;;;19.30;71.60;;;;;;5012115;28;20054;-71
2024/01/13 06:14:23;;;;;;;1.00;0.32;;;19.30;71.60;;;;;;5012541;28;20048;-69
2024/01/13 06:16:52;;;;;;;1.00;0.32;;;19.30;71.60;;;;;;5012636;28;20029;-68
2024/01/13 06:19:17;;;;;;;0.95;0.60;;;19.30;71.50;;;;;;5012577;28;20079;-67
2024/01/13 06:21:43;;;;;;;0.57;0.20;;;19.30;71.60;;;;;;5012186;28;20635;-68
2024/01/13 06:24:11;;;;;;;1.88;0.10;;;19.30;71.50;;;;;;5012426;28;20022;-69
2024/01/13 06:26:41;;;;;;;0.43;0.25;;;19.30;71.60;;;;;;5012641;28;20483;-69
2024/01/13 06:29:10;;;;;;;0.73;0.40;;;19.40;71.50;;;;;;5012445;28;20491;-70
2024/01/13 06:31:39;;;;;;;0.63;0.30;;;19.30;71.50;;;;;;5011819;28;20025;-70
2024/01/13 06:34:07;;;;;;;2.50;0.55;;;19.30;71.70;;;;;;5012490;28;20050;-71
2024/01/13 06:36:33;;;;;;;1.90;0.20;;;19.30;71.50;;;;;;5012384;28;20026;-69
2024/01/13 06:38:59;;;;;;;1.88;0.35;;;19.30;71.70;;;;;;5011156;28;20025;-69
2024/01/13 06:41:25;;;;;;;3.20;0.35;;;19.30;71.70;;;;;;5011611;28;20105;-67
2024/01/13 06:43:53;;;;;;;0.20;0.13;;;19.30;71.70;;;;;;5012089;28;20077;-69
2024/01/13 06:46:19;;;;;;;0.40;0.20;;;19.40;71.70;;;;;;5011804;28;20091;-69
2024/01/13 06:48:45;;;;;;;0.93;0.30;;;19.40;71.60;;;;;;5012206;28;20487;-70
2024/01/13 06:51:11;;;;;;;1.50;0.47;;;19.40;71.60;;;;;;5010166;28;20060;-70
2024/01/13 06:53:36;;;;;;;1.83;0.20;;;19.40;71.60;;;;;;5010535;28;20471;-68
2024/01/13 06:56:03;;;;;;;14.70;0.60;;;19.40;71.50;;;;;;5012090;28;20029;-69
2024/01/13 06:58:31;;;;;;;3.42;0.77;;;19.40;71.60;;;;;;5011320;28;20033;-69
2024/01/13 07:01:00;;;;;;;2.80;0.70;;;19.40;71.60;;;;;;5011211;28;20510;-69
2024/01/13 07:03:26;;;;;;;3.50;0.35;;;19.40;71.60;;;;;;5011975;28;20033;-70
2024/01/13 07:05:51;;;;;;;4.78;0.55;;;19.30;71.60;;;;;;5012025;28;20480;-67
2024/01/13 07:08:18;;;;;;;4.88;0.43;;;19.40;71.90;;;;;;5011847;28;20030;-68
2024/01/13 07:10:43;;;;;;;2.28;0.30;;;19.40;71.70;;;;;;5011022;28;20025;-69
2024/01/13 07:13:12;;;;;;;2.40;0.40;;;19.40;71.60;;;;;;5011683;28;20030;-68
2024/01/13 07:15:38;;;;;;;3.88;0.60;;;19.40;71.70;;;;;;5011756;28;20021;-70
2024/01/13 07:18:04;;;;;;;5.00;1.17;;;19.40;71.70;;;;;;5011682;28;20025;-69
2024/01/13 07:20:29;;;;;;;4.72;0.60;;;19.40;71.90;;;;;;5010869;28;20026;-69
2024/01/13 07:22:58;;;;;;;6.45;0.55;;;19.40;71.70;;;;;;5011506;28;20476;-69
2024/01/13 07:25:25;;;;;;;1.63;0.60;;;19.40;71.50;;;;;;5011366;28;20105;-68
2024/01/13 07:27:53;;;;;;;10.30;1.15;;;19.40;71.40;;;;;;5011667;28;20045;-69
2024/01/13 07:30:19;;;;;;;8.98;0.60;;;19.50;71.30;;;;;;5010801;28;20030;-69
2024/01/13 07:32:45;;;;;;;4.85;0.50;;;19.40;71.20;;;;;;5011449;28;20602;-69
2024/01/13 07:35:11;;;;;;;1.20;0.30;;;19.40;71.10;;;;;;5011346;28;20018;-69
2024/01/13 07:37:39;;;;;;;3.67;0.88;;;19.40;71.10;;;;;;5011415;28;20018;-69
2024/01/13 07:40:06;;;;;;;2.83;0.57;;;19.40;71.00;;;;;;5010648;28;20030;-69
2024/01/13 07:42:32;;;;;;;12.48;1.20;;;19.40;70.90;;;;;;5011599;28;20080;-68
2024/01/13 07:44:59;;;;;;;5.88;0.95;;;19.40;70.90;;;;;;5011398;28;20068;-68
2024/01/13 07:47:24;;;;;;;9.52;0.80;;;19.40;70.80;;;;;;5011443;28;20391;-69
2024/01/13 07:49:50;;;;;;;8.98;0.95;;;19.40;70.80;;;;;;5010818;28;20032;-69
2024/01/13 07:52:15;;;;;;;8.50;1.25;;;19.40;70.80;;;;;;5011118;28;20037;-68
2024/01/13 07:54:41;;;;;;;4.75;0.80;;;19.40;70.70;;;;;;5010918;28;20046;-68
2024/01/13 07:57:07;;;;;;;2.33;0.68;;;19.40;70.70;;;;;;5008863;28;20053;-67
2024/01/13 07:59:33;;;;;;;8.25;0.90;;;19.40;70.70;;;;;;5013483;28;20538;-69
2024/01/13 08:01:58;;;;;;;14.02;1.05;;;19.40;70.70;;;;;;5013622;28;20042;-68
2024/01/13 08:04:24;;;;;;;5.72;0.70;;;19.40;70.80;;;;;;5015036;28;20030;-67
2024/01/13 08:06:49;;;;;;;6.78;0.80;;;19.40;70.80;;;;;;5014923;28;20645;-68
2024/01/13 08:09:17;;;;;;;8.13;0.85;;;19.40;70.80;;;;;;5013998;28;20026;-66
2024/01/13 08:11:43;;;;;;;4.90;0.80;;;19.40;70.80;;;;;;5014425;28;20026;-68
2024/01/13 08:14:08;;;;;;;7.95;0.85;;;19.40;70.80;;;;;;5014957;28;20033;-68
2024/01/13 08:16:34;;;;;;;2.30;0.80;;;19.40;70.80;;;;;;5015008;28;20431;-67
2024/01/13 08:19:02;;;;;;;3.38;0.70;;;19.40;70.80;;;;;;5014897;28;20479;-67
2024/01/13 08:21:28;;;;;;;3.13;0.50;;;19.40;70.80;;;;;;5013152;28;20036;-68
2024/01/13 08:23:53;;;;;;;2.58;0.47;;;19.40;70.80;;;;;;5014765;28;20022;-67
2024/01/13 08:26:19;;;;;;;2.10;0.77;;;19.40;70.80;;;;;;5014674;28;20491;-69
2024/01/13 08:28:45;;;;;;;2.65;0.55;;;19.40;70.70;;;;;;5014601;28;20033;-69
2024/01/13 08:31:10;;;;;;;1.83;0.43;;;19.40;70.70;;;;;;5014069;28;20025;-68
2024/01/13 08:33:37;;;;;;;2.45;0.70;;;19.40;70.70;;;;;;5014446;28;20411;-69
2024/01/13 08:36:03;;;;;;;9.25;0.82;;;19.40;70.70;;;;;;5014232;28;20026;-68
2024/01/13 08:38:28;;;;;;;4.78;0.80;;;19.40;70.80;;;;;;5014025;28;20030;-67
2024/01/13 08:40:54;;;;;;;3.83;0.98;;;19.40;70.90;;;;;;5013702;28;20026;-68
2024/01/13 08:43:20;;;;;;;4.35;1.25;;;19.40;70.90;;;;;;5014506;28;20040;-68
2024/01/13 08:45:45;;;;;;;3.78;1.00;;;19.40;70.90;;;;;;5014459;28;20026;-68
2024/01/13 08:48:11;;;;;;;1.83;1.10;;;19.40;70.90;;;;;;5014502;28;20422;-68
2024/01/13 08:50:36;;;;;;;6.85;1.52;;;19.40;70.80;;;;;;5013483;28;20084;-69
2024/01/13 08:53:02;;;;;;;5.72;1.55;;;19.40;70.80;;;;;;5013651;28;20033;-68
2024/01/13 08:55:28;;;;;;;12.30;1.63;;;19.40;70.90;;;;;;5015098;28;20377;-68
2024/01/13 08:57:53;;;;;;;29.55;3.45;;;19.40;71.80;;;;;;5013961;28;20117;-70
2024/01/13 09:00:25;;;;;;;23.20;2.65;;;19.40;73.00;;;;;;5013446;28;20030;-69
2024/01/13 09:02:51;;;;;;;17.85;3.22;;;19.50;73.50;;;;;;5013941;28;20088;-69
2024/01/13 09:05:17;;;;;;;10.85;2.10;;;19.50;73.10;;;;;;5013958;28;20076;-68
2024/01/13 09:07:42;;;;;;;8.88;1.80;;;19.50;72.80;;;;;;5013668;28;20034;-69
2024/01/13 09:10:08;;;;;;;8.77;1.88;;;19.50;72.70;;;;;;5013222;28;20033;-68
2024/01/13 09:12:34;;;;;;;5.05;1.83;;;19.50;72.50;;;;;;5013732;28;20080;-67
2024/01/13 09:14:59;;;;;;;8.65;1.90;;;19.50;72.40;;;;;;5013700;28;20037;-68
2024/01/13 09:17:25;;;;;;;8.77;1.50;;;19.50;72.30;;;;;;5013805;28;20476;-68
2024/01/13 09:19:52;;;;;;;6.82;1.52;;;19.50;72.30;;;;;;5012817;28;20018;-69
2024/01/13 09:22:18;;;;;;;8.20;1.42;;;19.40;72.20;;;;;;5013599;28;20045;-68
2024/01/13 09:24:44;;;;;;;5.35;1.35;;;19.40;72.20;;;;;;5013386;28;20022;-69
2024/01/13 09:27:09;;;;;;;4.18;1.30;;;19.40;72.20;;;;;;5012964;28;20108;-69
2024/01/13 09:29:35;;;;;;;5.05;1.70;;;19.40;72.10;;;;;;5013486;28;20091;-69
2024/01/13 09:32:04;;;;;;;9.13;1.52;;;19.40;72.20;;;;;;5012734;28;20026;-68
2024/01/13 09:34:30;;;;;;;6.78;1.55;;;19.40;72.10;;;;;;5013255;28;20028;-69
2024/01/13 09:36:55;;;;;;;4.95;1.73;;;19.40;72.20;;;;;;5011881;28;20026;-68
2024/01/13 09:39:21;;;;;;;10.68;1.40;;;19.30;72.30;;;;;;5011560;28;20427;-68
2024/01/13 09:41:48;;;;;;;6.72;1.50;;;19.30;72.30;;;;;;5011009;28;20033;-69
2024/01/13 09:44:23;;;;;;;12.38;1.83;;;19.30;72.40;;;;;;5011579;28;20033;-69
2024/01/13 09:46:51;;;;;;;5.00;2.10;;;19.40;72.80;;;;;;5011519;28;20026;-69
2024/01/13 09:49:18;;;;;;;15.63;1.52;;;19.40;73.40;;;;;;5011701;28;20026;-69
2024/01/13 09:51:44;;;;;;;11.02;2.03;;;19.40;72.90;;;;;;5012113;28;20034;-69
2024/01/13 09:54:37;;;;;;;16.10;2.20;;;19.40;72.40;;;;;;5006581;28;20085;-69
2024/01/13 09:57:02;;;;;;;6.97;1.10;;;19.40;72.30;;;;;;4990159;28;20124;-69
2024/01/13 09:59:29;;;;;;;11.52;2.33;;;19.40;72.20;;;;;;4991335;28;20026;-70
2024/01/13 10:01:55;;;;;;;10.15;2.30;;;19.40;72.20;;;;;;4992879;28;20026;-69
2024/01/13 10:04:21;;;;;;;13.40;1.75;;;19.40;72.20;;;;;;4992448;28;20018;-69
2024/01/13 10:06:47;;;;;;;13.15;1.55;;;19.40;72.10;;;;;;4991311;28;20472;-70
2024/01/13 10:09:14;;;;;;;8.45;1.73;;;19.30;72.00;;;;;;4992625;28;20015;-70
2024/01/13 10:11:39;;;;;;;4.70;1.63;;;19.30;71.90;;;;;;4992300;28;20022;-70
2024/01/13 10:14:08;;;;;;;4.28;2.00;;;19.30;71.80;;;;;;4993015;28;20037;-69
2024/01/13 10:16:34;;;;;;;6.97;1.58;;;19.40;71.80;;;;;;4993051;28;20528;-70
2024/01/13 10:19:08;;;;;;;4.40;1.25;;;19.40;71.80;;;;;;4992631;28;20146;-69
2024/01/13 10:21:35;;;;;;;6.55;1.10;;;19.40;71.70;;;;;;4992366;28;20025;-69
2024/01/13 10:24:01;;;;;;;8.90;1.40;;;19.40;71.70;;;;;;4992948;28;20022;-69
2024/01/13 10:26:29;;;;;;;2.20;0.75;;;19.40;71.60;;;;;;4993055;28;20034;-70
2024/01/13 10:28:56;;;;;;;3.03;1.10;;;19.30;71.50;;;;;;4993384;28;20038;-70
2024/01/13 10:31:23;;;;;;;8.50;1.42;;;19.40;71.50;;;;;;4992258;28;20077;-70
2024/01/13 10:33:50;;;;;;;4.30;1.20;;;19.30;71.50;;;;;;4992932;28;20026;-70
2024/01/13 10:36:19;;;;;;;4.13;1.45;;;19.30;71.40;;;;;;4992900;28;20041;-70
2024/01/13 10:38:44;;;;;;;2.97;1.10;;;19.40;71.50;;;;;;4992711;28;20050;-69
2024/01/13 10:41:10;;;;;;;4.82;1.58;;;19.30;71.60;;;;;;4991892;28;20026;-69
2024/01/13 10:43:49;;;;;;;3.33;1.23;;;19.30;71.60;;;;;;4992699;28;20041;-70
2024/01/13 10:46:22;;;;;;;5.35;1.17;;;19.30;71.70;;;;;;4992703;28;20531;-70
2024/01/13 10:48:50;;;;;;;3.38;1.08;;;19.30;71.80;;;;;;4992624;28;20037;-69
2024/01/13 10:51:29;;;;;;;6.47;1.80;;;19.30;71.90;;;;;;4991758;28;20038;-69
2024/01/13 10:53:58;;;;;;;3.20;1.08;;;19.30;71.90;;;;;;4992202;28;20026;-69
2024/01/13 10:56:25;;;;;;;4.32;0.88;;;19.20;72.00;;;;;;4992471;28;20022;-69
2024/01/13 10:58:52;;;;;;;3.95;1.10;;;19.30;72.00;;;;;;4992449;28;20030;-69
2024/01/13 11:01:18;;;;;;;3.47;1.05;;;19.30;72.00;;;;;;4991664;28;20039;-69
2024/01/13 11:03:45;;;;;;;4.28;1.10;;;19.30;72.00;;;;;;4990864;28;20030;-69
2024/01/13 11:06:11;;;;;;;1.67;0.70;;;19.30;72.10;;;;;;4974747;28;20409;-69
2024/01/13 11:08:37;;;;;;;2.10;0.95;;;19.30;72.00;;;;;;4992463;28;20110;-71
2024/01/13 11:11:05;;;;;;;2.80;1.00;;;19.30;72.00;;;;;;4991268;28;20033;-68
2024/01/13 11:13:36;;;;;;;3.92;1.00;;;19.30;72.00;;;;;;4992890;28;20038;-71
2024/01/13 11:16:08;;;;;;;4.32;1.40;;;19.30;71.90;;;;;;4992243;28;20019;-69
2024/01/13 11:18:40;;;;;;;1.67;1.10;;;19.30;71.90;;;;;;4991895;28;20031;-69
2024/01/13 11:21:08;;;;;;;2.88;0.80;;;19.30;71.80;;;;;;4991244;28;20025;-69
2024/01/13 11:23:40;;;;;;;2.28;0.88;;;19.40;71.80;;;;;;4991713;28;20030;-70
2024/01/13 11:26:05;;;;;;;1.65;0.95;;;19.30;71.70;;;;;;4991945;28;20488;-70
2024/01/13 11:28:53;;;;;;;3.90;0.80;;;19.40;71.60;;;;;;4991631;28;20113;-68
2024/01/13 11:31:33;;;;;;;1.60;0.80;;;19.40;71.50;;;;;;4990058;28;20408;-70
2024/01/13 11:34:03;;;;;;;2.45;0.63;;;19.40;71.40;;;;;;4991405;28;20030;-70
2024/01/13 11:36:33;;;;;;;2.13;0.85;;;19.40;71.40;;;;;;4991666;28;20034;-70
2024/01/13 11:39:05;;;;;;;1.60;0.73;;;19.40;71.30;;;;;;4991574;28;20023;-70
2024/01/13 11:41:51;;;;;;;1.85;0.77;;;19.40;71.20;;;;;;4990794;28;20019;-69
2024/01/13 11:44:35;;;;;;;1.88;1.00;;;19.40;71.10;;;;;;4991633;28;20026;-69
2024/01/13 11:47:02;;;;;;;1.48;0.70;;;19.40;71.10;;;;;;4991686;28;20023;-69
2024/01/13 11:49:30;;;;;;;1.48;0.73;;;19.40;71.00;;;;;;4991394;28;20038;-69
2024/01/13 11:52:01;;;;;;;2.25;0.60;;;19.40;71.00;;;;;;4990841;28;20401;-71
2024/01/13 11:54:28;;;;;;;2.35;0.80;;;19.40;71.00;;;;;;4991303;28;20030;-70
2024/01/13 11:56:54;;;;;;;2.35;0.90;;;19.40;71.00;;;;;;4991440;28;20514;-69
2024/01/13 11:59:20;;;;;;;3.22;0.90;;;19.40;71.10;;;;;;4991239;28;20031;-69
2024/01/13 12:01:46;;;;;;;1.10;0.55;;;19.40;71.10;;;;;;4990929;28;20026;-69
2024/01/13 12:04:13;;;;;;;2.42;0.80;;;19.40;71.10;;;;;;4990520;28;20026;-69
2024/01/13 12:06:40;;;;;;;2.17;0.80;;;19.40;71.20;;;;;;4991389;28;20026;-70
2024/01/13 12:09:06;;;;;;;0.40;0.40;;;19.40;71.20;;;;;;4991374;28;20432;-69
2024/01/13 12:11:32;;;;;;;2.08;0.75;;;19.40;71.20;;;;;;4990546;28;20026;-69
2024/01/13 12:13:58;;;;;;;2.65;1.10;;;19.40;71.30;;;;;;4991195;28;20448;-69
2024/01/13 12:16:23;;;;;;;1.58;0.63;;;19.40;71.30;;;;;;4991257;28;20023;-69
2024/01/13 12:18:49;;;;;;;1.73;0.82;;;19.40;71.30;;;;;;4991298;28;20022;-69
2024/01/13 12:21:15;;;;;;;1.25;0.50;;;19.40;71.30;;;;;;4990569;28;20027;-69
2024/01/13 12:23:43;;;;;;;0.85;0.57;;;19.40;71.30;;;;;;4991248;28;20035;-69
2024/01/13 12:26:09;;;;;;;0.80;0.52;;;19.40;71.30;;;;;;4991185;28;20042;-69
2024/01/13 12:28:35;;;;;;;1.15;0.60;;;19.40;71.20;;;;;;4991138;28;20562;-70
2024/01/13 12:31:04;;;;;;;1.40;0.60;;;19.40;71.20;;;;;;4990398;28;20034;-69
2024/01/13 12:33:31;;;;;;;0.70;0.50;;;19.40;71.20;;;;;;4991128;28;20518;-69
2024/01/13 12:36:04;;;;;;;2.55;0.70;;;19.40;71.20;;;;;;4991433;28;20114;-68
2024/01/13 12:38:30;;;;;;;0.45;0.45;;;19.40;71.10;;;;;;4991359;28;20070;-69
2024/01/13 12:40:57;;;;;;;1.00;0.65;;;19.40;71.00;;;;;;4990473;28;20037;-69
2024/01/13 12:43:24;;;;;;;1.10;0.63;;;19.40;71.00;;;;;;4992845;28;20134;-70